Banks, United Kingdom
Current Conditions -  °F | °C
As of 6:50 AM on Friday 31 Oct 2014 (Local Time) from EGNO Reporting Station
Scattered Clouds Scattered Clouds  
Wind Chill: 57°   Ceiling: Unl
Heat Index: 57°   Visibility: 5mi
Dew Point: 57°   Wind: 13mph
Humidity: 100%   Direction: 150°SSE
Pressure: 29.85"   Gusts: NA
Location:  53.68°N, 2.92°W
Report Text: EGNO 310650Z 15011KT 8000 FEW025 SCT040 14/14 Q1011
Loading
Personal Weather Stations






























Interactive Weather Map
Tropical Storm Tracking
New forecast layout! Learn more

10-Day Weather Forecast

Advertisements
Track Severe Weather on mobile